createdAt,value
2019-04-29T00:00:35.307Z,5.57
2019-04-29T00:03:02.674Z,4.63
2019-04-29T00:05:30.143Z,5.20
2019-04-29T00:07:57.554Z,4.70
2019-04-29T00:10:25.369Z,4.60
2019-04-29T00:12:52.765Z,4.70
2019-04-29T00:15:21.922Z,5.13
2019-04-29T00:17:50.974Z,4.87
2019-04-29T00:20:22.698Z,5.37
2019-04-29T00:22:50.084Z,5.17
2019-04-29T00:25:17.508Z,5.37
2019-04-29T00:27:44.945Z,5.30
2019-04-29T00:30:14.111Z,5.37
2019-04-29T00:32:41.510Z,5.97
2019-04-29T00:35:08.956Z,6.27
2019-04-29T00:37:40.882Z,6.30
2019-04-29T00:40:28.297Z,4.90
2019-04-29T00:42:59.988Z,6.07
2019-04-29T00:45:27.364Z,6.10
2019-04-29T00:47:54.760Z,6.37
2019-04-29T00:50:22.162Z,6.30
2019-04-29T00:52:49.538Z,6.23
2019-04-29T00:55:21.788Z,6.30
2019-04-29T00:57:49.140Z,6.13
2019-04-29T01:00:18.509Z,5.83
2019-04-29T01:02:45.906Z,6.83
2019-04-29T01:05:13.298Z,7.20
2019-04-29T01:07:40.679Z,6.83
2019-04-29T01:10:08.239Z,7.17
2019-04-29T01:12:37.076Z,7.53
2019-04-29T01:15:05.594Z,7.23
2019-04-29T01:17:33.138Z,8.10
2019-04-29T01:20:00.530Z,6.33
2019-04-29T01:22:28.272Z,7.07
2019-04-29T01:24:55.668Z,7.33
2019-04-29T01:27:24.766Z,7.70
2019-04-29T01:29:52.136Z,6.97
2019-04-29T01:32:19.588Z,7.97
2019-04-29T01:34:51.422Z,7.07
2019-04-29T01:37:18.786Z,7.40
2019-04-29T01:39:56.743Z,7.73
2019-04-29T01:42:25.774Z,8.33
2019-04-29T01:44:53.146Z,7.67
2019-04-29T01:47:20.527Z,8.07
2019-04-29T01:49:47.898Z,7.70
2019-04-29T01:52:15.263Z,7.40
2019-04-29T01:54:42.662Z,8.07
2019-04-29T01:57:10.045Z,9.10
2019-04-29T01:59:37.492Z,7.73
2019-04-29T02:02:05.027Z,8.03
2019-04-29T02:04:32.385Z,8.13
2019-04-29T02:06:59.785Z,9.00
2019-04-29T02:09:31.490Z,8.20
2019-04-29T02:11:58.859Z,8.73
2019-04-29T02:14:26.229Z,8.47
2019-04-29T02:16:53.612Z,9.60
2019-04-29T02:19:20.995Z,10.10
2019-04-29T02:22:06.737Z,9.10
2019-04-29T02:24:35.311Z,10.03
2019-04-29T02:27:05.638Z,9.37
2019-04-29T02:29:31.807Z,9.77
2019-04-29T02:31:59.195Z,10.00
2019-04-29T02:34:26.681Z,9.60
2019-04-29T02:36:54.078Z,10.50
2019-04-29T02:39:28.796Z,11.07
2019-04-29T02:41:57.821Z,11.17
2019-04-29T02:44:25.198Z,10.47
2019-04-29T02:46:52.580Z,10.57
2019-04-29T02:49:19.969Z,10.27
2019-04-29T02:51:51.791Z,10.80
2019-04-29T02:54:19.409Z,11.10
2019-04-29T02:56:57.313Z,11.30
2019-04-29T02:59:42.708Z,11.87
2019-04-29T03:02:11.798Z,10.67
2019-04-29T03:04:40.829Z,10.57
2019-04-29T03:07:08.285Z,11.00
2019-04-29T03:09:37.302Z,11.47
2019-04-29T03:12:04.694Z,11.43
2019-04-29T03:14:32.078Z,12.00
2019-04-29T03:16:59.545Z,13.27
2019-04-29T03:19:28.566Z,13.27
2019-04-29T03:21:57.589Z,13.87
2019-04-29T03:24:24.998Z,12.77
2019-04-29T03:26:52.450Z,12.70
2019-04-29T03:29:22.506Z,13.37
2019-04-29T03:31:50.887Z,13.03
2019-04-29T03:34:18.251Z,14.60
2019-04-29T03:36:45.629Z,14.60
2019-04-29T03:39:13.034Z,15.53
2019-04-29T03:41:40.439Z,14.50
2019-04-29T03:44:07.833Z,15.37
2019-04-29T03:46:35.255Z,15.33
2019-04-29T03:49:02.638Z,14.23
2019-04-29T03:51:30.098Z,13.87
2019-04-29T03:53:57.545Z,14.37
2019-04-29T03:56:24.909Z,16.10
2019-04-29T03:58:52.331Z,14.30
2019-04-29T04:01:21.354Z,14.83
2019-04-29T04:03:50.457Z,15.10
2019-04-29T04:06:19.498Z,14.90
2019-04-29T04:09:04.814Z,15.83
2019-04-29T04:11:17.698Z,14.93
2019-04-29T04:13:45.086Z,14.20
2019-04-29T04:16:14.130Z,15.53
2019-04-29T04:18:41.527Z,15.60
2019-04-29T04:21:08.972Z,16.77
2019-04-29T04:23:36.350Z,15.80
2019-04-29T04:26:03.811Z,15.30
2019-04-29T04:28:31.187Z,17.43
2019-04-29T04:30:58.573Z,17.73
2019-04-29T04:33:25.972Z,19.13
2019-04-29T04:35:53.393Z,17.73
2019-04-29T04:38:20.841Z,18.03
2019-04-29T04:40:53.033Z,18.63
2019-04-29T04:43:20.417Z,16.10
2019-04-29T04:45:47.800Z,17.43
2019-04-29T04:48:15.180Z,18.93
2019-04-29T04:50:42.566Z,17.67
2019-04-29T04:53:09.970Z,18.57
2019-04-29T04:55:38.970Z,18.07
2019-04-29T04:58:06.377Z,18.40
2019-04-29T05:00:35.407Z,19.00
2019-04-29T05:03:02.840Z,18.50
2019-04-29T05:05:30.528Z,17.70
2019-04-29T05:07:57.916Z,19.43
2019-04-29T05:10:25.393Z,19.13
2019-04-29T05:12:52.767Z,17.40
2019-04-29T05:15:20.268Z,19.17
2019-04-29T05:17:47.659Z,19.23
2019-04-29T05:20:15.033Z,18.40
2019-04-29T05:22:44.091Z,20.67
2019-04-29T05:25:11.586Z,19.97
2019-04-29T05:27:38.987Z,19.77
2019-04-29T05:30:06.541Z,19.20
2019-04-29T05:32:33.939Z,21.13
2019-04-29T05:35:12.076Z,19.90
2019-04-29T05:37:41.167Z,20.63
2019-04-29T05:40:08.718Z,23.53
2019-04-29T05:42:36.129Z,21.00
2019-04-29T05:45:09.257Z,21.87
2019-04-29T05:47:38.275Z,22.23
2019-04-29T05:50:20.299Z,23.57
2019-04-29T05:52:49.876Z,23.00
2019-04-29T05:55:17.447Z,22.50
2019-04-29T05:57:44.807Z,23.80
2019-04-29T06:00:12.547Z,25.13
2019-04-29T06:02:40.003Z,23.60
2019-04-29T06:05:07.616Z,21.47
2019-04-29T06:07:35.135Z,21.97
2019-04-29T06:10:02.603Z,20.77
2019-04-29T06:12:30.043Z,21.17
2019-04-29T06:14:57.436Z,20.33
2019-04-29T06:17:24.919Z,17.97
2019-04-29T06:19:52.301Z,19.80
2019-04-29T06:22:19.725Z,19.00
2019-04-29T06:24:47.103Z,20.10
2019-04-29T06:27:14.489Z,19.33
2019-04-29T06:29:41.911Z,19.60
2019-04-29T06:32:09.383Z,22.67
2019-04-29T06:34:40.072Z,22.77
2019-04-29T06:37:06.014Z,21.50
2019-04-29T06:39:33.419Z,23.13
2019-04-29T06:42:00.807Z,22.77
2019-04-29T06:44:28.211Z,22.27
2019-04-29T06:46:56.313Z,20.73
2019-04-29T06:49:23.895Z,17.97
2019-04-29T06:51:51.264Z,17.20
2019-04-29T06:54:18.672Z,18.83
2019-04-29T06:56:46.129Z,18.97
2019-04-29T06:59:13.976Z,17.50
2019-04-29T07:01:41.522Z,16.03
2019-04-29T07:04:08.913Z,16.60
2019-04-29T07:06:36.407Z,17.67
2019-04-29T07:09:05.623Z,17.47
2019-04-29T07:11:36.511Z,17.10
2019-04-29T07:14:02.226Z,18.77
2019-04-29T07:16:31.990Z,17.23
2019-04-29T07:18:58.780Z,17.53
2019-04-29T07:21:26.220Z,15.70
2019-04-29T07:23:53.612Z,13.93
2019-04-29T07:26:21.074Z,12.93
2019-04-29T07:28:52.839Z,14.00
2019-04-29T07:31:19.485Z,10.93
2019-04-29T07:33:46.864Z,11.03
2019-04-29T07:36:14.259Z,11.50
2019-04-29T07:38:42.189Z,10.40
2019-04-29T07:41:14.262Z,12.40
2019-04-29T07:43:43.115Z,11.33
2019-04-29T07:46:19.828Z,12.20
2019-04-29T07:49:00.513Z,13.20
2019-04-29T07:51:16.375Z,12.77
2019-04-29T07:53:45.397Z,12.77
2019-04-29T07:56:12.960Z,13.07
2019-04-29T07:58:40.335Z,11.67
2019-04-29T08:01:07.722Z,14.20
2019-04-29T08:03:35.133Z,13.40
2019-04-29T08:06:02.871Z,14.37
2019-04-29T08:08:31.706Z,15.10
2019-04-29T08:10:59.078Z,15.10
2019-04-29T08:13:26.968Z,14.50
2019-04-29T08:15:54.383Z,14.87
2019-04-29T08:18:21.757Z,16.20
2019-04-29T08:20:49.160Z,17.53
2019-04-29T08:23:16.656Z,18.10
2019-04-29T08:25:44.038Z,16.80
2019-04-29T08:28:11.472Z,16.60
2019-04-29T08:30:41.882Z,17.63
2019-04-29T08:33:11.994Z,15.47
2019-04-29T08:35:38.153Z,16.57
2019-04-29T08:38:05.640Z,15.60
2019-04-29T08:40:34.371Z,16.17
2019-04-29T08:43:22.414Z,16.90
2019-04-29T08:46:03.696Z,14.13
2019-04-29T08:48:31.159Z,15.97
2019-04-29T08:50:58.572Z,14.93
2019-04-29T08:53:25.947Z,16.87
2019-04-29T08:55:56.275Z,15.20
2019-04-29T08:58:23.687Z,15.60
2019-04-29T09:00:51.279Z,17.13
2019-04-29T09:03:23.342Z,16.20
2019-04-29T09:06:04.326Z,15.27
2019-04-29T09:08:18.563Z,16.97
2019-04-29T09:10:46.195Z,15.20
2019-04-29T09:13:13.585Z,15.93
2019-04-29T09:15:41.072Z,16.93
2019-04-29T09:18:11.163Z,14.73
2019-04-29T09:20:37.666Z,14.53
2019-04-29T09:23:08.184Z,15.03
2019-04-29T09:25:37.502Z,16.23
2019-04-29T09:28:09.005Z,13.70
2019-04-29T09:30:38.590Z,14.30
2019-04-29T09:33:08.881Z,14.67
2019-04-29T09:35:38.653Z,16.70
2019-04-29T09:38:04.517Z,16.60
2019-04-29T09:40:48.682Z,15.77
2019-04-29T09:43:27.094Z,16.03
2019-04-29T09:46:00.332Z,16.47
2019-04-29T09:48:27.810Z,14.90
2019-04-29T09:50:55.207Z,15.20
2019-04-29T09:53:22.587Z,15.33
2019-04-29T09:55:50.448Z,16.53
2019-04-29T09:58:17.841Z,14.93
2019-04-29T10:01:03.113Z,15.50
2019-04-29T10:03:37.861Z,16.93
2019-04-29T10:06:12.764Z,15.87
2019-04-29T10:08:40.241Z,15.70
2019-04-29T10:11:07.851Z,19.23
2019-04-29T10:13:35.278Z,15.03
2019-04-29T10:16:04.326Z,14.27
2019-04-29T10:18:39.562Z,14.40
2019-04-29T10:21:08.628Z,15.13
2019-04-29T10:23:36.111Z,14.13
2019-04-29T10:26:03.625Z,14.83
2019-04-29T10:28:31.529Z,13.10
2019-04-29T10:30:58.976Z,14.67
2019-04-29T10:33:26.372Z,14.80
2019-04-29T10:35:53.752Z,14.87
2019-04-29T10:38:21.219Z,14.13
2019-04-29T10:41:03.677Z,14.70
2019-04-29T10:43:53.606Z,15.37
2019-04-29T10:46:21.782Z,13.83
2019-04-29T10:48:51.275Z,14.70
2019-04-29T10:51:18.719Z,13.93
2019-04-29T10:53:46.737Z,14.60
2019-04-29T10:56:16.960Z,14.40
2019-04-29T10:58:44.354Z,12.77
2019-04-29T11:01:17.868Z,12.40
2019-04-29T11:03:45.395Z,12.90
2019-04-29T11:06:12.863Z,12.97
2019-04-29T11:08:48.158Z,13.80
2019-04-29T11:11:23.439Z,13.63
2019-04-29T11:13:49.969Z,13.07
2019-04-29T11:16:16.294Z,12.53
2019-04-29T11:18:45.326Z,13.57
2019-04-29T11:21:15.547Z,13.13
2019-04-29T11:23:44.624Z,13.37
2019-04-29T11:26:16.326Z,12.30
2019-04-29T11:28:46.838Z,13.37
2019-04-29T11:31:14.449Z,13.60
2019-04-29T11:33:53.437Z,13.20
2019-04-29T11:36:22.448Z,13.33
2019-04-29T11:38:49.880Z,14.63
2019-04-29T11:41:19.795Z,13.13
2019-04-29T11:43:46.622Z,13.57
2019-04-29T11:46:15.702Z,13.27
2019-04-29T11:48:43.332Z,14.17
2019-04-29T11:51:18.347Z,12.60
2019-04-29T11:53:45.900Z,11.80
2019-04-29T11:56:13.306Z,11.60
2019-04-29T11:58:45.088Z,11.33
2019-04-29T12:01:17.077Z,11.77
2019-04-29T12:03:46.122Z,11.43
2019-04-29T12:06:16.328Z,12.03
2019-04-29T12:08:48.088Z,10.40
2019-04-29T12:11:14.741Z,11.00
2019-04-29T12:13:58.981Z,11.20
2019-04-29T12:16:29.384Z,11.63
2019-04-29T12:19:17.219Z,10.97
2019-04-29T12:21:46.335Z,10.80
2019-04-29T12:24:15.530Z,11.00
2019-04-29T12:26:44.467Z,11.63
2019-04-29T12:29:13.704Z,11.90
2019-04-29T12:31:59.488Z,11.47
2019-04-29T12:34:37.691Z,10.90
2019-04-29T12:37:06.752Z,9.97
2019-04-29T12:39:51.031Z,12.00
2019-04-29T12:42:26.337Z,11.67
2019-04-29T12:45:19.615Z,12.57
2019-04-29T12:47:44.096Z,12.20
2019-04-29T12:50:11.559Z,10.23
2019-04-29T12:52:38.931Z,10.83
2019-04-29T12:55:19.780Z,10.93
2019-04-29T12:57:36.105Z,9.90
2019-04-29T13:00:07.624Z,10.60
2019-04-29T13:02:55.575Z,10.30
2019-04-29T13:05:38.977Z,10.53
2019-04-29T13:08:08.107Z,10.53
2019-04-29T13:10:42.324Z,9.67
2019-04-29T13:13:09.463Z,11.23
2019-04-29T13:15:50.457Z,9.43
2019-04-29T13:18:23.390Z,10.23
2019-04-29T13:20:53.707Z,10.60
2019-04-29T13:23:33.328Z,10.50
2019-04-29T13:25:50.956Z,10.90
2019-04-29T13:28:29.975Z,9.83
2019-04-29T13:30:51.343Z,9.87
2019-04-29T13:33:17.116Z,11.43
2019-04-29T13:35:48.604Z,10.63
2019-04-29T13:38:13.875Z,10.37
2019-04-29T13:40:41.880Z,10.70
2019-04-29T13:43:09.812Z,10.50
2019-04-29T13:45:42.154Z,19.87
2019-04-29T13:48:17.227Z,10.60
2019-04-29T13:50:55.697Z,10.27
2019-04-29T13:53:23.131Z,16.50
2019-04-29T13:56:10.014Z,10.17
2019-04-29T13:58:22.094Z,10.63
2019-04-29T14:00:55.834Z,9.70
2019-04-29T14:03:24.979Z,9.97
2019-04-29T14:06:03.583Z,10.27
2019-04-29T14:08:24.292Z,10.50
2019-04-29T14:10:51.434Z,9.93
2019-04-29T14:13:21.146Z,11.17
2019-04-29T14:15:48.769Z,10.33
2019-04-29T14:18:16.152Z,9.90
2019-04-29T14:20:47.322Z,10.77
2019-04-29T14:23:12.680Z,9.70
2019-04-29T14:25:43.200Z,10.73
2019-04-29T14:28:10.566Z,9.63
2019-04-29T14:30:39.305Z,9.30
2019-04-29T14:33:07.515Z,9.87
2019-04-29T14:35:36.611Z,9.77
2019-04-29T14:38:05.124Z,30.77
2019-04-29T14:40:33.592Z,8.27
2019-04-29T14:43:02.907Z,9.67
2019-04-29T14:45:33.404Z,8.83
2019-04-29T14:48:11.062Z,8.47
2019-04-29T14:50:39.383Z,8.07
2019-04-29T14:53:06.833Z,8.60
2019-04-29T14:55:34.225Z,8.73
2019-04-29T14:58:01.706Z,8.43
2019-04-29T15:00:47.322Z,7.47
2019-04-29T15:03:14.815Z,6.90
2019-04-29T15:05:42.302Z,7.47
2019-04-29T15:08:09.806Z,7.27
2019-04-29T15:10:39.629Z,7.33
2019-04-29T15:13:20.760Z,8.30
2019-04-29T15:16:03.898Z,9.27
2019-04-29T15:18:48.074Z,6.90
2019-04-29T15:21:14.108Z,8.17
2019-04-29T15:23:41.475Z,6.90
2019-04-29T15:26:08.882Z,7.33
2019-04-29T15:28:51.318Z,7.70
2019-04-29T15:31:19.853Z,6.87
2019-04-29T15:33:47.268Z,7.23
2019-04-29T15:36:14.986Z,5.37
2019-04-29T15:38:47.198Z,8.23
2019-04-29T15:41:13.944Z,7.20
2019-04-29T15:43:46.954Z,8.10
2019-04-29T15:46:11.503Z,6.17
2019-04-29T15:48:39.958Z,6.20
2019-04-29T15:51:13.835Z,5.73
2019-04-29T15:53:40.428Z,6.63
2019-04-29T15:56:27.076Z,6.57
2019-04-29T15:58:37.034Z,6.03
2019-04-29T16:01:13.301Z,5.30
2019-04-29T16:03:37.386Z,6.63
2019-04-29T16:09:02.814Z,5.67
2019-04-29T16:11:48.017Z,7.37
2019-04-29T16:14:17.135Z,7.03
2019-04-29T16:16:44.618Z,5.70
2019-04-29T16:19:12.085Z,5.53
2019-04-29T16:21:41.586Z,7.40
2019-04-29T16:24:24.928Z,6.57
2019-04-29T16:26:37.710Z,5.30
2019-04-29T16:29:12.443Z,6.13
2019-04-29T16:31:34.316Z,4.90
2019-04-29T16:34:01.797Z,5.73
2019-04-29T16:36:29.235Z,9.87
2019-04-29T16:38:56.605Z,5.53
2019-04-29T16:41:31.789Z,5.63
2019-04-29T16:43:59.354Z,4.67
2019-04-29T16:46:35.528Z,4.47
2019-04-29T16:48:57.504Z,4.20
2019-04-29T16:51:24.945Z,6.70
2019-04-29T16:53:52.301Z,4.13
2019-04-29T16:56:20.064Z,5.67
2019-04-29T16:58:47.492Z,4.60
2019-04-29T17:01:15.047Z,5.17
2019-04-29T17:03:42.418Z,5.00
2019-04-29T17:06:09.800Z,4.90
2019-04-29T17:08:39.213Z,11.10
2019-04-29T17:11:17.449Z,4.10
2019-04-29T17:13:43.194Z,4.70
2019-04-29T17:16:12.830Z,4.90
2019-04-29T17:18:40.252Z,4.40
2019-04-29T17:21:07.747Z,4.20
2019-04-29T17:23:35.182Z,4.53
2019-04-29T17:26:02.649Z,3.70
2019-04-29T17:28:31.662Z,4.60
2019-04-29T17:31:12.435Z,4.30
2019-04-29T17:33:50.948Z,4.20
2019-04-29T17:35:16.794Z,6.73
2019-04-29T17:36:23.662Z,3.83
2019-04-29T17:38:48.490Z,4.00
2019-04-29T17:41:17.026Z,4.57
2019-04-29T17:43:52.013Z,4.10
2019-04-29T17:46:21.075Z,4.00
2019-04-29T17:48:53.230Z,4.27
2019-04-29T17:51:21.272Z,4.17
2019-04-29T17:53:50.314Z,4.10
2019-04-29T17:56:19.454Z,3.80
2019-04-29T17:58:52.582Z,5.00
2019-04-29T18:01:23.721Z,4.00
2019-04-29T18:03:52.855Z,3.77
2019-04-29T18:06:26.268Z,3.00
2019-04-29T18:09:11.928Z,3.40
2019-04-29T18:11:50.504Z,5.67
2019-04-29T18:14:08.502Z,3.30
2019-04-29T18:16:39.448Z,3.70
2019-04-29T18:19:26.270Z,3.17
2019-04-29T18:22:07.031Z,4.00
2019-04-29T18:24:47.050Z,3.30
2019-04-29T18:27:16.397Z,7.27
2019-04-29T18:29:43.863Z,3.43
2019-04-29T18:32:11.229Z,3.53
2019-04-29T18:34:38.713Z,4.73
2019-04-29T18:37:06.612Z,3.57
2019-04-29T18:39:34.828Z,3.00
2019-04-29T18:42:03.244Z,3.73
2019-04-29T18:44:30.882Z,3.87
2019-04-29T18:46:58.303Z,2.90
2019-04-29T18:49:25.873Z,2.90
2019-04-29T18:51:53.504Z,3.00
2019-04-29T18:54:20.950Z,4.30
2019-04-29T18:56:48.345Z,3.63
2019-04-29T18:59:21.015Z,3.67
2019-04-29T19:01:45.091Z,3.07
2019-04-29T19:04:32.299Z,2.87
2019-04-29T19:07:02.442Z,4.83
2019-04-29T19:09:32.212Z,3.47
2019-04-29T19:11:59.687Z,3.50
2019-04-29T19:14:28.366Z,3.27
2019-04-29T19:17:00.115Z,3.53
2019-04-29T19:19:25.365Z,3.50
2019-04-29T19:21:52.911Z,4.20
2019-04-29T19:24:20.293Z,3.83
2019-04-29T19:26:47.683Z,3.97
2019-04-29T19:29:15.626Z,4.60
2019-04-29T19:31:48.636Z,3.10
2019-04-29T19:34:14.641Z,3.80
2019-04-29T19:36:41.966Z,3.40
2019-04-29T19:39:09.335Z,3.00
2019-04-29T19:41:36.745Z,3.03
2019-04-29T19:44:07.701Z,4.07
2019-04-29T19:46:38.321Z,3.67
2019-04-29T19:49:07.452Z,10.97
2019-04-29T19:51:31.965Z,7.27
2019-04-29T19:53:59.407Z,5.03
2019-04-29T19:56:27.229Z,3.53
2019-04-29T19:58:57.337Z,3.10
2019-04-29T20:01:29.838Z,3.70
2019-04-29T20:04:15.924Z,14.73
2019-04-29T20:06:39.633Z,9.47
2019-04-29T20:09:16.063Z,4.13
2019-04-29T20:11:36.808Z,4.50
2019-04-29T20:14:18.160Z,10.63
2019-04-29T20:16:44.807Z,4.00
2019-04-29T20:19:20.569Z,3.80
2019-04-29T20:21:46.019Z,3.33
2019-04-29T20:24:15.631Z,2.90
2019-04-29T20:26:46.913Z,3.10
2019-04-29T20:29:15.865Z,3.40
2019-04-29T20:31:48.658Z,3.70
2019-04-29T20:34:12.699Z,3.07
2019-04-29T20:36:42.777Z,3.50
2019-04-29T20:39:15.255Z,3.43
2019-04-29T20:41:41.290Z,4.00
2019-04-29T20:44:09.052Z,3.70
2019-04-29T20:46:44.891Z,4.53
2019-04-29T20:49:06.150Z,3.27
2019-04-29T20:51:48.909Z,3.60
2019-04-29T20:54:18.863Z,3.73
2019-04-29T20:56:42.366Z,3.33
2019-04-29T20:59:12.751Z,3.60
2019-04-29T21:01:43.159Z,3.93
2019-04-29T21:04:09.995Z,3.53
2019-04-29T21:06:47.357Z,3.03
2019-04-29T21:09:06.990Z,3.43
2019-04-29T21:11:42.174Z,3.50
2019-04-29T21:14:12.058Z,3.83
2019-04-29T21:16:41.065Z,3.33
2019-04-29T21:19:08.980Z,3.50
2019-04-29T21:21:41.237Z,4.00
2019-04-29T21:24:13.622Z,4.13
2019-04-29T21:26:39.648Z,3.87
2019-04-29T21:29:05.481Z,3.53
2019-04-29T21:31:32.985Z,3.80
2019-04-29T21:34:00.351Z,3.60
2019-04-29T21:36:45.610Z,3.37
2019-04-29T21:39:17.364Z,3.67
2019-04-29T21:42:01.510Z,4.20
2019-04-29T21:44:29.167Z,4.10
2019-04-29T21:46:59.638Z,3.47
2019-04-29T21:49:25.860Z,4.53
2019-04-29T21:51:55.370Z,3.93
2019-04-29T21:54:22.490Z,4.07
2019-04-29T21:56:49.900Z,3.87
2019-04-29T21:59:17.416Z,3.87
2019-04-29T22:01:45.122Z,3.30
2019-04-29T22:04:12.516Z,3.40
2019-04-29T22:06:39.891Z,4.17
2019-04-29T22:09:08.426Z,3.80
2019-04-29T22:11:43.102Z,3.77
2019-04-29T22:14:05.553Z,3.43
2019-04-29T22:16:33.169Z,3.97
2019-04-29T22:19:00.580Z,4.13
2019-04-29T22:21:28.147Z,3.63
2019-04-29T22:23:55.644Z,4.17
2019-04-29T22:26:26.215Z,3.90
2019-04-29T22:28:53.223Z,3.93
2019-04-29T22:31:21.270Z,3.73
2019-04-29T22:33:49.000Z,3.80
2019-04-29T22:36:18.110Z,3.70
2019-04-29T22:38:48.738Z,4.00
2019-04-29T22:41:20.133Z,4.00
2019-04-29T22:43:47.147Z,3.53
2019-04-29T22:46:15.686Z,3.63
2019-04-29T22:48:45.415Z,4.23
2019-04-29T22:51:15.228Z,4.50
2019-04-29T22:53:46.720Z,4.07
2019-04-29T22:56:14.025Z,4.47
2019-04-29T22:58:43.839Z,3.23
2019-04-29T23:01:09.500Z,4.83
2019-04-29T23:03:37.490Z,3.60
2019-04-29T23:06:08.385Z,4.17
2019-04-29T23:08:38.110Z,4.00
2019-04-29T23:11:05.355Z,4.67
2019-04-29T23:13:32.943Z,3.80
2019-04-29T23:16:02.150Z,4.03
2019-04-29T23:18:41.104Z,3.90
2019-04-29T23:21:04.084Z,4.70
2019-04-29T23:23:33.500Z,4.57
2019-04-29T23:26:04.181Z,4.60
2019-04-29T23:28:29.287Z,4.40
2019-04-29T23:30:56.749Z,4.10
2019-04-29T23:33:26.333Z,4.90
2019-04-29T23:35:53.279Z,3.97
2019-04-29T23:38:20.661Z,3.80
2019-04-29T23:40:49.734Z,4.30
2019-04-29T23:43:19.999Z,4.27
2019-04-29T23:45:46.249Z,5.13
2019-04-29T23:48:13.651Z,4.37
2019-04-29T23:50:41.023Z,4.43
2019-04-29T23:53:08.420Z,4.70
2019-04-29T23:55:35.780Z,4.00
2019-04-29T23:58:23.463Z,8.37
